sensor_id;sensor_type;location;lat;lon;timestamp;pressure;altitude;pressure_sealevel;temperature;humidity
64683;BME280;51107;47.652;19.016;2023-04-08T00:02:24;100116.31;;;2.94;100.00
64683;BME280;51107;47.652;19.016;2023-04-08T00:04:53;100117.94;;;2.95;100.00
64683;BME280;51107;47.652;19.016;2023-04-08T00:07:21;100111.31;;;2.91;100.00
64683;BME280;51107;47.652;19.016;2023-04-08T00:09:50;100101.78;;;2.93;100.00
64683;BME280;51107;47.652;19.016;2023-04-08T00:12:19;100109.59;;;2.91;100.00
64683;BME280;51107;47.652;19.016;2023-04-08T00:14:47;100097.28;;;2.82;100.00
64683;BME280;51107;47.652;19.016;2023-04-08T00:17:15;100111.25;;;2.78;100.00
64683;BME280;51107;47.652;19.016;2023-04-08T00:19:46;100097.28;;;2.82;100.00
64683;BME280;51107;47.652;19.016;2023-04-08T00:22:14;100108.22;;;2.85;100.00
64683;BME280;51107;47.652;19.016;2023-04-08T00:24:43;100109.03;;;2.86;100.00
64683;BME280;51107;47.652;19.016;2023-04-08T00:27:11;100101.41;;;2.84;100.00
64683;BME280;51107;47.652;19.016;2023-04-08T00:29:40;100114.19;;;2.86;100.00
64683;BME280;51107;47.652;19.016;2023-04-08T00:32:08;100108.03;;;2.88;100.00
64683;BME280;51107;47.652;19.016;2023-04-08T00:34:37;100118.13;;;2.92;100.00
64683;BME280;51107;47.652;19.016;2023-04-08T00:37:05;100115.66;;;2.90;100.00
64683;BME280;51107;47.652;19.016;2023-04-08T00:39:33;100115.47;;;2.93;100.00
64683;BME280;51107;47.652;19.016;2023-04-08T00:42:02;100119.78;;;2.93;100.00
64683;BME280;51107;47.652;19.016;2023-04-08T00:44:30;100117.56;;;2.86;100.00
64683;BME280;51107;47.652;19.016;2023-04-08T00:46:58;100120.06;;;2.88;100.00
64683;BME280;51107;47.652;19.016;2023-04-08T00:49:27;100114.38;;;2.83;100.00
64683;BME280;51107;47.652;19.016;2023-04-08T00:51:56;100119.22;;;2.87;100.00
64683;BME280;51107;47.652;19.016;2023-04-08T00:54:26;100118.66;;;2.82;100.00
64683;BME280;51107;47.652;19.016;2023-04-08T00:56:54;100113.53;;;2.82;100.00
64683;BME280;51107;47.652;19.016;2023-04-08T00:59:23;100125.47;;;2.83;100.00
64683;BME280;51107;47.652;19.016;2023-04-08T01:02:56;100112.41;;;2.86;100.00
64683;BME280;51107;47.652;19.016;2023-04-08T01:05:11;100120.25;;;2.85;100.00
64683;BME280;51107;47.652;19.016;2023-04-08T01:07:44;100125.47;;;2.83;100.00
64683;BME280;51107;47.652;19.016;2023-04-08T01:10:38;100119.53;;;2.83;100.00
64683;BME280;51107;47.652;19.016;2023-04-08T01:13:11;100124.84;;;2.80;100.00
64683;BME280;51107;47.652;19.016;2023-04-08T01:15:43;100117.41;;;2.75;100.00
64683;BME280;51107;47.652;19.016;2023-04-08T01:18:14;100121.97;;;2.70;100.00
64683;BME280;51107;47.652;19.016;2023-04-08T01:20:44;100101.69;;;2.80;100.00
64683;BME280;51107;47.652;19.016;2023-04-08T01:24:09;100114.91;;;2.74;100.00
64683;BME280;51107;47.652;19.016;2023-04-08T01:26:21;100117.88;;;2.67;100.00
64683;BME280;51107;47.652;19.016;2023-04-08T01:28:57;100104.16;;;2.67;100.00
64683;BME280;51107;47.652;19.016;2023-04-08T01:31:27;100114.91;;;2.74;100.00
64683;BME280;51107;47.652;19.016;2023-04-08T01:33:59;100119.50;;;2.68;100.00
64683;BME280;51107;47.652;19.016;2023-04-08T01:36:29;100116.78;;;2.71;100.00
64683;BME280;51107;47.652;19.016;2023-04-08T01:39:00;100124.41;;;2.73;100.00
64683;BME280;51107;47.652;19.016;2023-04-08T01:41:33;100121.81;;;2.73;100.00
64683;BME280;51107;47.652;19.016;2023-04-08T01:44:03;100115.19;;;2.69;100.00
64683;BME280;51107;47.652;19.016;2023-04-08T01:46:32;100117.12;;;2.65;100.00
64683;BME280;51107;47.652;19.016;2023-04-08T01:49:03;100118.78;;;2.66;100.00
64683;BME280;51107;47.652;19.016;2023-04-08T01:51:36;100111.87;;;2.67;100.00
64683;BME280;51107;47.652;19.016;2023-04-08T01:54:05;100106.84;;;2.65;100.00
64683;BME280;51107;47.652;19.016;2023-04-08T01:56:37;100112.72;;;2.67;100.00
64683;BME280;51107;47.652;19.016;2023-04-08T01:59:10;100117.12;;;2.65;100.00
64683;BME280;51107;47.652;19.016;2023-04-08T02:01:43;100113.81;;;2.63;100.00
64683;BME280;51107;47.652;19.016;2023-04-08T02:04:12;100111.34;;;2.62;100.00
64683;BME280;51107;47.652;19.016;2023-04-08T02:06:40;100113.34;;;2.57;100.00
64683;BME280;51107;47.652;19.016;2023-04-08T02:09:09;100116.03;;;2.55;100.00
64683;BME280;51107;47.652;19.016;2023-04-08T02:11:38;100117.59;;;2.58;100.00
64683;BME280;51107;47.652;19.016;2023-04-08T02:14:07;100109.03;;;2.57;100.00
64683;BME280;51107;47.652;19.016;2023-04-08T02:16:48;100117.66;;;2.56;100.00
64683;BME280;51107;47.652;19.016;2023-04-08T02:19:29;100116.56;;;2.60;100.00
64683;BME280;51107;47.652;19.016;2023-04-08T02:22:05;100113.44;;;2.55;100.00
64683;BME280;51107;47.652;19.016;2023-04-08T02:24:34;100109.94;;;2.56;100.00
64683;BME280;51107;47.652;19.016;2023-04-08T02:27:06;100112.50;;;2.56;100.00
64683;BME280;51107;47.652;19.016;2023-04-08T02:29:39;100108.22;;;2.57;100.00
64683;BME280;51107;47.652;19.016;2023-04-08T02:32:09;100104.87;;;2.54;100.00
64683;BME280;51107;47.652;19.016;2023-04-08T02:34:39;100105.34;;;2.61;100.00
64683;BME280;51107;47.652;19.016;2023-04-08T02:37:09;100105.63;;;2.57;100.00
64683;BME280;51107;47.652;19.016;2023-04-08T02:39:37;100109.03;;;2.57;100.00
64683;BME280;51107;47.652;19.016;2023-04-08T02:42:06;100111.50;;;2.59;100.00
64683;BME280;51107;47.652;19.016;2023-04-08T02:44:36;100106.47;;;2.57;100.00
64683;BME280;51107;47.652;19.016;2023-04-08T02:47:05;100112.25;;;2.61;100.00
64683;BME280;51107;47.652;19.016;2023-04-08T02:49:35;100117.31;;;2.62;100.00
64683;BME280;51107;47.652;19.016;2023-04-08T02:52:03;100113.25;;;2.58;100.00
64683;BME280;51107;47.652;19.016;2023-04-08T02:54:31;100110.69;;;2.58;100.00
64683;BME280;51107;47.652;19.016;2023-04-08T02:57:01;100112.34;;;2.59;100.00
64683;BME280;51107;47.652;19.016;2023-04-08T02:59:30;100115.03;;;2.58;100.00
64683;BME280;51107;47.652;19.016;2023-04-08T03:01:58;100116.03;;;2.55;100.00
64683;BME280;51107;47.652;19.016;2023-04-08T03:04:27;100115.03;;;2.58;100.00
64683;BME280;51107;47.652;19.016;2023-04-08T03:06:56;100121.87;;;2.57;100.00
64683;BME280;51107;47.652;19.016;2023-04-08T03:09:26;100110.41;;;2.48;100.00
64683;BME280;51107;47.652;19.016;2023-04-08T03:11:55;100121.31;;;2.52;100.00
64683;BME280;51107;47.652;19.016;2023-04-08T03:14:23;100109.41;;;2.51;100.00
64683;BME280;51107;47.652;19.016;2023-04-08T03:16:51;100119.59;;;2.52;100.00
64683;BME280;51107;47.652;19.016;2023-04-08T03:19:19;100116.94;;;2.54;100.00
64683;BME280;51107;47.652;19.016;2023-04-08T03:21:48;100117.94;;;2.51;100.00
64683;BME280;51107;47.652;19.016;2023-04-08T03:24:16;100127.12;;;2.55;100.00
64683;BME280;51107;47.652;19.016;2023-04-08T03:26:45;100119.31;;;2.57;100.00
64683;BME280;51107;47.652;19.016;2023-04-08T03:29:13;100125.31;;;2.58;100.00
64683;BME280;51107;47.652;19.016;2023-04-08T03:31:42;100124.38;;;2.59;100.00
64683;BME280;51107;47.652;19.016;2023-04-08T03:34:10;100125.37;;;2.56;100.00
64683;BME280;51107;47.652;19.016;2023-04-08T03:36:39;100124.22;;;2.62;100.00
64683;BME280;51107;47.652;19.016;2023-04-08T03:39:07;100126.69;;;2.63;100.00
64683;BME280;51107;47.652;19.016;2023-04-08T03:41:35;100130.25;;;2.61;100.00
64683;BME280;51107;47.652;19.016;2023-04-08T03:44:04;100127.78;;;2.59;100.00
64683;BME280;51107;47.652;19.016;2023-04-08T03:46:32;100120.88;;;2.60;100.00
64683;BME280;51107;47.652;19.016;2023-04-08T03:49:01;100130.44;;;2.58;100.00
64683;BME280;51107;47.652;19.016;2023-04-08T03:51:29;100129.41;;;2.60;100.00
64683;BME280;51107;47.652;19.016;2023-04-08T03:53:58;100123.28;;;2.63;100.00
64683;BME280;51107;47.652;19.016;2023-04-08T03:56:26;100129.25;;;2.63;100.00
64683;BME280;51107;47.652;19.016;2023-04-08T03:58:55;100131.75;;;2.65;100.00
64683;BME280;51107;47.652;19.016;2023-04-08T04:01:23;100135.41;;;2.61;100.00
64683;BME280;51107;47.652;19.016;2023-04-08T04:03:52;100141.94;;;2.66;100.00
64683;BME280;51107;47.652;19.016;2023-04-08T04:06:20;100141.03;;;2.67;100.00
64683;BME280;51107;47.652;19.016;2023-04-08T04:08:48;100145.41;;;2.65;100.00
64683;BME280;51107;47.652;19.016;2023-04-08T04:11:17;100149.47;;;2.69;100.00
64683;BME280;51107;47.652;19.016;2023-04-08T04:13:46;100148.81;;;2.66;100.00
64683;BME280;51107;47.652;19.016;2023-04-08T04:16:14;100145.13;;;2.70;100.00
64683;BME280;51107;47.652;19.016;2023-04-08T04:18:42;100152.84;;;2.70;100.00
64683;BME280;51107;47.652;19.016;2023-04-08T04:21:11;100153.59;;;2.72;100.00
64683;BME280;51107;47.652;19.016;2023-04-08T04:23:39;100157.84;;;2.73;100.00
64683;BME280;51107;47.652;19.016;2023-04-08T04:26:08;100149.13;;;2.76;100.00
64683;BME280;51107;47.652;19.016;2023-04-08T04:28:37;100152.78;;;2.71;100.00
64683;BME280;51107;47.652;19.016;2023-04-08T04:31:05;100154.25;;;2.76;100.00
64683;BME280;51107;47.652;19.016;2023-04-08T04:33:34;100162.59;;;2.79;100.00
64683;BME280;51107;47.652;19.016;2023-04-08T04:36:02;100149.94;;;2.76;100.00
64683;BME280;51107;47.652;19.016;2023-04-08T04:38:31;100155.06;;;2.76;100.00
64683;BME280;51107;47.652;19.016;2023-04-08T04:40:59;100164.38;;;2.79;100.00
64683;BME280;51107;47.652;19.016;2023-04-08T04:43:28;100166.03;;;2.80;100.00
64683;BME280;51107;47.652;19.016;2023-04-08T04:45:56;100158.38;;;2.78;100.00
64683;BME280;51107;47.652;19.016;2023-04-08T04:48:25;100168.03;;;2.75;100.00
64683;BME280;51107;47.652;19.016;2023-04-08T04:50:58;100169.84;;;2.72;100.00
64683;BME280;51107;47.652;19.016;2023-04-08T04:53:27;100152.41;;;2.78;100.00
64683;BME280;51107;47.652;19.016;2023-04-08T04:55:55;100160.66;;;2.68;100.00
64683;BME280;51107;47.652;19.016;2023-04-08T04:58:24;100169.84;;;2.72;100.00
64683;BME280;51107;47.652;19.016;2023-04-08T05:00:53;100160.88;;;2.80;100.00
64683;BME280;51107;47.652;19.016;2023-04-08T05:03:21;100170.97;;;2.83;100.00
64683;BME280;51107;47.652;19.016;2023-04-08T05:05:53;100166.84;;;2.80;100.00
64683;BME280;51107;47.652;19.016;2023-04-08T05:08:21;100167.41;;;2.85;100.00
64683;BME280;51107;47.652;19.016;2023-04-08T05:10:51;100171.59;;;2.86;100.00
64683;BME280;51107;47.652;19.016;2023-04-08T05:13:19;100168.88;;;2.89;100.00
64683;BME280;51107;47.652;19.016;2023-04-08T05:15:48;100175.75;;;2.89;100.00
64683;BME280;51107;47.652;19.016;2023-04-08T05:18:16;100181.00;;;2.87;100.00
64683;BME280;51107;47.652;19.016;2023-04-08T05:20:44;100181.28;;;2.83;100.00
64683;BME280;51107;47.652;19.016;2023-04-08T05:23:13;100176.84;;;2.85;100.00
64683;BME280;51107;47.652;19.016;2023-04-08T05:25:42;100186.88;;;2.89;100.00
64683;BME280;51107;47.652;19.016;2023-04-08T05:28:10;100175.94;;;2.86;100.00
64683;BME280;51107;47.652;19.016;2023-04-08T05:30:39;100183.47;;;2.89;100.00
64683;BME280;51107;47.652;19.016;2023-04-08T05:33:07;100193.03;;;2.87;100.00
64683;BME280;51107;47.652;19.016;2023-04-08T05:35:36;100191.38;;;2.86;100.00
64683;BME280;51107;47.652;19.016;2023-04-08T05:38:05;100200.47;;;2.92;100.00
64683;BME280;51107;47.652;19.016;2023-04-08T05:40:34;100190.19;;;2.92;100.00
64683;BME280;51107;47.652;19.016;2023-04-08T05:43:03;100205.63;;;2.92;100.00
64683;BME280;51107;47.652;19.016;2023-04-08T05:45:31;100202.03;;;2.94;100.00
64683;BME280;51107;47.652;19.016;2023-04-08T05:47:59;100207.81;;;2.83;100.00
64683;BME280;51107;47.652;19.016;2023-04-08T05:50:28;100203.97;;;2.91;100.00
64683;BME280;51107;47.652;19.016;2023-04-08T05:52:57;100206.47;;;2.92;100.00
64683;BME280;51107;47.652;19.016;2023-04-08T05:55:25;100213.16;;;2.95;100.00
64683;BME280;51107;47.652;19.016;2023-04-08T05:57:53;100202.66;;;2.83;100.00
64683;BME280;51107;47.652;19.016;2023-04-08T06:00:24;100202.31;;;2.89;100.00
64683;BME280;51107;47.652;19.016;2023-04-08T06:02:52;100201.22;;;2.94;100.00
64683;BME280;51107;47.652;19.016;2023-04-08T06:05:21;100197.81;;;2.93;100.00
64683;BME280;51107;47.652;19.016;2023-04-08T06:07:49;100206.19;;;2.97;100.00
64683;BME280;51107;47.652;19.016;2023-04-08T06:10:18;100210.44;;;2.98;100.00
64683;BME280;51107;47.652;19.016;2023-04-08T06:12:46;100208.09;;;2.93;100.00
64683;BME280;51107;47.652;19.016;2023-04-08T06:15:14;100206.47;;;2.92;100.00
64683;BME280;51107;47.652;19.016;2023-04-08T06:17:43;100210.53;;;2.96;100.00
64683;BME280;51107;47.652;19.016;2023-04-08T06:20:12;100205.28;;;2.98;100.00
64683;BME280;51107;47.652;19.016;2023-04-08T06:22:43;100213.47;;;3.04;100.00
64683;BME280;51107;47.652;19.016;2023-04-08T06:25:11;100217.28;;;2.97;100.00
64683;BME280;51107;47.652;19.016;2023-04-08T06:27:39;100208.38;;;3.03;100.00
64683;BME280;51107;47.652;19.016;2023-04-08T06:30:08;100222.09;;;3.03;100.00
64683;BME280;51107;47.652;19.016;2023-04-08T06:32:38;100217.78;;;3.04;100.00
64683;BME280;51107;47.652;19.016;2023-04-08T06:35:06;100212.25;;;2.96;100.00
64683;BME280;51107;47.652;19.016;2023-04-08T06:37:35;100229.06;;;3.01;100.00
64683;BME280;51107;47.652;19.016;2023-04-08T06:40:06;100227.50;;;2.99;100.00
64683;BME280;51107;47.652;19.016;2023-04-08T06:42:37;100223.19;;;2.99;100.00
64683;BME280;51107;47.652;19.016;2023-04-08T06:45:09;100237.63;;;3.02;100.00
64683;BME280;51107;47.652;19.016;2023-04-08T06:47:37;100234.22;;;3.01;100.00
64683;BME280;51107;47.652;19.016;2023-04-08T06:50:06;100229.53;;;2.94;100.00
64683;BME280;51107;47.652;19.016;2023-04-08T06:52:35;100239.38;;;3.01;100.00
64683;BME280;51107;47.652;19.016;2023-04-08T06:55:04;100245.44;;;3.00;100.00
64683;BME280;51107;47.652;19.016;2023-04-08T06:57:32;100245.88;;;3.07;100.00
64683;BME280;51107;47.652;19.016;2023-04-08T07:00:01;100242.97;;;3.13;100.00
64683;BME280;51107;47.652;19.016;2023-04-08T07:02:30;100248.47;;;3.07;100.00
64683;BME280;51107;47.652;19.016;2023-04-08T07:04:58;100252.78;;;3.06;100.00
64683;BME280;51107;47.652;19.016;2023-04-08T07:07:27;100250.22;;;3.06;100.00
64683;BME280;51107;47.652;19.016;2023-04-08T07:09:55;100245.78;;;2.94;100.00
64683;BME280;51107;47.652;19.016;2023-04-08T07:12:24;100247.47;;;2.95;100.00
64683;BME280;51107;47.652;19.016;2023-04-08T07:14:53;100248.81;;;2.86;100.00
64683;BME280;51107;47.652;19.016;2023-04-08T07:17:21;100254.53;;;2.92;100.00
64683;BME280;51107;47.652;19.016;2023-04-08T07:19:50;100249.19;;;2.95;100.00
64683;BME280;51107;47.652;19.016;2023-04-08T07:22:19;100264.37;;;2.99;100.00
64683;BME280;51107;47.652;19.016;2023-04-08T07:24:47;100253.50;;;2.80;100.00
64683;BME280;51107;47.652;19.016;2023-04-08T07:27:16;100261.13;;;2.81;100.00
64683;BME280;51107;47.652;19.016;2023-04-08T07:29:45;100263.44;;;2.86;100.00
64683;BME280;51107;47.652;19.016;2023-04-08T07:32:13;100270.53;;;2.97;100.00
64683;BME280;51107;47.652;19.016;2023-04-08T07:34:41;100270.25;;;3.01;100.00
64683;BME280;51107;47.652;19.016;2023-04-08T07:37:10;100273.91;;;2.83;100.00
64683;BME280;51107;47.652;19.016;2023-04-08T07:39:40;100275.81;;;2.79;100.00
64683;BME280;51107;47.652;19.016;2023-04-08T07:42:08;100272.34;;;2.95;100.00
64683;BME280;51107;47.652;19.016;2023-04-08T07:44:37;100283.22;;;3.00;100.00
64683;BME280;51107;47.652;19.016;2023-04-08T07:47:05;100276.78;;;3.07;100.00
64683;BME280;51107;47.652;19.016;2023-04-08T07:49:34;100293.06;;;3.08;100.00
64683;BME280;51107;47.652;19.016;2023-04-08T07:52:04;100295.47;;;3.11;100.00
64683;BME280;51107;47.652;19.016;2023-04-08T07:54:33;100296.94;;;3.15;100.00
64683;BME280;51107;47.652;19.016;2023-04-08T07:57:01;100308.00;;;3.17;100.00
64683;BME280;51107;47.652;19.016;2023-04-08T07:59:30;100307.91;;;3.18;100.00
64683;BME280;51107;47.652;19.016;2023-04-08T08:01:59;100308.53;;;3.22;100.00
64683;BME280;51107;47.652;19.016;2023-04-08T08:04:27;100307.63;;;3.23;100.00
64683;BME280;51107;47.652;19.016;2023-04-08T08:06:56;100312.03;;;3.21;100.00
64683;BME280;51107;47.652;19.016;2023-04-08T08:09:24;100300.81;;;3.22;100.00
64683;BME280;51107;47.652;19.016;2023-04-08T08:11:53;100311.47;;;3.16;100.00
64683;BME280;51107;47.652;19.016;2023-04-08T08:14:21;100310.00;;;3.26;100.00
64683;BME280;51107;47.652;19.016;2023-04-08T08:16:49;100307.91;;;3.18;100.00
64683;BME280;51107;47.652;19.016;2023-04-08T08:19:18;100311.56;;;3.29;100.00
64683;BME280;51107;47.652;19.016;2023-04-08T08:21:47;100308.66;;;3.35;100.00
64683;BME280;51107;47.652;19.016;2023-04-08T08:24:15;100313.72;;;3.36;100.00
64683;BME280;51107;47.652;19.016;2023-04-08T08:26:43;100315.00;;;3.44;100.00
64683;BME280;51107;47.652;19.016;2023-04-08T08:29:14;100314.63;;;3.35;100.00
64683;BME280;51107;47.652;19.016;2023-04-08T08:31:42;100311.28;;;3.33;100.00
64683;BME280;51107;47.652;19.016;2023-04-08T08:34:11;100315.06;;;3.28;100.00
64683;BME280;51107;47.652;19.016;2023-04-08T08:36:39;100308.34;;;3.11;100.00
64683;BME280;51107;47.652;19.016;2023-04-08T08:39:07;100310.75;;;3.28;100.00
64683;BME280;51107;47.652;19.016;2023-04-08T08:41:36;100314.34;;;3.40;100.00
64683;BME280;51107;47.652;19.016;2023-04-08T08:44:05;100313.22;;;3.44;100.00
64683;BME280;51107;47.652;19.016;2023-04-08T08:46:34;100323.00;;;3.39;100.00
64683;BME280;51107;47.652;19.016;2023-04-08T08:49:03;100330.34;;;3.45;100.00
64683;BME280;51107;47.652;19.016;2023-04-08T08:51:31;100329.63;;;3.43;100.00
64683;BME280;51107;47.652;19.016;2023-04-08T08:54:03;100321.81;;;3.45;100.00
64683;BME280;51107;47.652;19.016;2023-04-08T08:56:32;100325.84;;;3.34;100.00
64683;BME280;51107;47.652;19.016;2023-04-08T08:59:01;100332.44;;;3.24;100.00
64683;BME280;51107;47.652;19.016;2023-04-08T09:04:19;100338.47;;;3.39;100.00
64683;BME280;51107;47.652;19.016;2023-04-08T09:07:07;100346.00;;;3.42;100.00
64683;BME280;51107;47.652;19.016;2023-04-08T09:09:49;100349.66;;;3.38;100.00
64683;BME280;51107;47.652;19.016;2023-04-08T09:12:19;100347.81;;;3.26;100.00
64683;BME280;51107;47.652;19.016;2023-04-08T09:14:48;100352.47;;;3.19;100.00
64683;BME280;51107;47.652;19.016;2023-04-08T09:17:31;100352.47;;;3.19;100.00
64683;BME280;51107;47.652;19.016;2023-04-08T09:20:11;100359.06;;;3.39;100.00
64683;BME280;51107;47.652;19.016;2023-04-08T09:23:00;100355.53;;;3.40;100.00
64683;BME280;51107;47.652;19.016;2023-04-08T09:25:30;100354.34;;;3.46;100.00
64683;BME280;51107;47.652;19.016;2023-04-08T09:27:59;100355.53;;;3.40;100.00
64683;BME280;51107;47.652;19.016;2023-04-08T09:30:31;100364.75;;;3.44;100.00
64683;BME280;51107;47.652;19.016;2023-04-08T09:32:59;100360.59;;;3.42;100.00
64683;BME280;51107;47.652;19.016;2023-04-08T09:35:28;100352.53;;;3.48;100.00
64683;BME280;51107;47.652;19.016;2023-04-08T09:37:57;100365.59;;;3.45;100.00
64683;BME280;51107;47.652;19.016;2023-04-08T09:40:26;100364.41;;;3.50;100.00
64683;BME280;51107;47.652;19.016;2023-04-08T09:42:55;100368.06;;;3.46;100.00
64683;BME280;51107;47.652;19.016;2023-04-08T09:45:24;100371.28;;;3.50;100.00
64683;BME280;51107;47.652;19.016;2023-04-08T09:48:00;100370.03;;;3.57;100.00
64683;BME280;51107;47.652;19.016;2023-04-08T09:50:32;100369.09;;;3.58;100.00
64683;BME280;51107;47.652;19.016;2023-04-08T09:53:11;100375.81;;;3.61;100.00
64683;BME280;51107;47.652;19.016;2023-04-08T09:55:42;100369.28;;;3.55;100.00
64683;BME280;51107;47.652;19.016;2023-04-08T09:58:15;100371.03;;;3.54;100.00
64683;BME280;51107;47.652;19.016;2023-04-08T10:00:48;100375.19;;;3.57;100.00
64683;BME280;51107;47.652;19.016;2023-04-08T10:03:29;100372.78;;;3.68;100.00
64683;BME280;51107;47.652;19.016;2023-04-08T10:06:00;100381.91;;;3.74;100.00
64683;BME280;51107;47.652;19.016;2023-04-08T10:08:29;100379.06;;;3.93;100.00
64683;BME280;51107;47.652;19.016;2023-04-08T10:11:00;100381.72;;;3.91;100.00
64683;BME280;51107;47.652;19.016;2023-04-08T10:13:28;100379.87;;;3.94;100.00
64683;BME280;51107;47.652;19.016;2023-04-08T10:18:47;100381.06;;;3.88;100.00
64683;BME280;51107;47.652;19.016;2023-04-08T10:21:34;100369.09;;;3.87;100.00
64683;BME280;51107;47.652;19.016;2023-04-08T10:24:10;100380.31;;;4.00;100.00
64683;BME280;51107;47.652;19.016;2023-04-08T10:26:43;100380.53;;;3.97;100.00
64683;BME280;51107;47.652;19.016;2023-04-08T10:31:47;100378.12;;;3.80;100.00
64683;BME280;51107;47.652;19.016;2023-04-08T10:34:16;100367.25;;;3.89;100.00
64683;BME280;51107;47.652;19.016;2023-04-08T10:36:45;100372.22;;;3.92;100.00
64683;BME280;51107;47.652;19.016;2023-04-08T10:39:14;100370.22;;;3.97;100.00
64683;BME280;51107;47.652;19.016;2023-04-08T10:41:44;100372.75;;;4.12;100.00
64683;BME280;51107;47.652;19.016;2023-04-08T10:46:50;100386.47;;;4.27;100.00
64683;BME280;51107;47.652;19.016;2023-04-08T10:49:19;100365.31;;;4.07;100.00
64683;BME280;51107;47.652;19.016;2023-04-08T10:51:49;100377.66;;;4.02;100.00
64683;BME280;51107;47.652;19.016;2023-04-08T10:54:17;100371.78;;;4.00;100.00
64683;BME280;51107;47.652;19.016;2023-04-08T10:56:50;100374.44;;;3.98;100.00
64683;BME280;51107;47.652;19.016;2023-04-08T10:59:29;100376.63;;;4.04;100.00
64683;BME280;51107;47.652;19.016;2023-04-08T11:01:59;100381.81;;;3.90;100.00
64683;BME280;51107;47.652;19.016;2023-04-08T11:04:29;100377.28;;;3.94;100.00
64683;BME280;51107;47.652;19.016;2023-04-08T11:06:58;100376.44;;;4.07;100.00
64683;BME280;51107;47.652;19.016;2023-04-08T11:09:26;100380.41;;;4.13;100.00
64683;BME280;51107;47.652;19.016;2023-04-08T11:11:55;100378.56;;;4.15;100.00
64683;BME280;51107;47.652;19.016;2023-04-08T11:14:24;100371.09;;;4.25;100.00
64683;BME280;51107;47.652;19.016;2023-04-08T11:16:52;100375.22;;;4.28;100.00
64683;BME280;51107;47.652;19.016;2023-04-08T11:19:21;100380.53;;;4.39;100.00
64683;BME280;51107;47.652;19.016;2023-04-08T11:21:50;100374.62;;;4.10;100.00
64683;BME280;51107;47.652;19.016;2023-04-08T11:24:18;100366.75;;;4.25;100.00
64683;BME280;51107;47.652;19.016;2023-04-08T11:26:49;100376.59;;;4.33;100.00
64683;BME280;51107;47.652;19.016;2023-04-08T11:29:19;100375.34;;;4.26;100.00
64683;BME280;51107;47.652;19.016;2023-04-08T11:31:48;100377.91;;;4.12;100.00
64683;BME280;51107;47.652;19.016;2023-04-08T11:34:22;100374.22;;;4.30;100.00
64683;BME280;51107;47.652;19.016;2023-04-08T11:36:51;100376.78;;;4.30;100.00
64683;BME280;51107;47.652;19.016;2023-04-08T11:39:24;100378.81;;;4.25;100.00
64683;BME280;51107;47.652;19.016;2023-04-08T11:41:53;100378.38;;;4.33;100.00
64683;BME280;51107;47.652;19.016;2023-04-08T11:44:31;100384.34;;;4.33;100.00
64683;BME280;51107;47.652;19.016;2023-04-08T11:47:00;100386.44;;;4.41;100.00
64683;BME280;51107;47.652;19.016;2023-04-08T11:49:43;100385.69;;;4.39;100.00
64683;BME280;51107;47.652;19.016;2023-04-08T11:52:12;100385.09;;;4.35;100.00
64683;BME280;51107;47.652;19.016;2023-04-08T11:54:41;100382.66;;;4.47;100.00
64683;BME280;51107;47.652;19.016;2023-04-08T11:57:10;100386.75;;;4.64;100.00
64683;BME280;51107;47.652;19.016;2023-04-08T11:59:39;100379.81;;;4.64;100.00
64683;BME280;51107;47.652;19.016;2023-04-08T12:02:08;100373.22;;;4.60;100.00
64683;BME280;51107;47.652;19.016;2023-04-08T12:04:37;100379.34;;;4.72;100.00
64683;BME280;51107;47.652;19.016;2023-04-08T12:07:06;100379.78;;;4.79;100.00
64683;BME280;51107;47.652;19.016;2023-04-08T12:09:34;100371.41;;;4.75;100.00
64683;BME280;51107;47.652;19.016;2023-04-08T12:12:03;100374.53;;;4.80;100.00
64683;BME280;51107;47.652;19.016;2023-04-08T12:14:31;100379.69;;;4.80;100.00
64683;BME280;51107;47.652;19.016;2023-04-08T12:16:59;100370.13;;;4.68;100.00
64683;BME280;51107;47.652;19.016;2023-04-08T12:19:28;100380.88;;;4.62;100.00
64683;BME280;51107;47.652;19.016;2023-04-08T12:22:00;100380.06;;;4.47;100.00
64683;BME280;51107;47.652;19.016;2023-04-08T12:24:30;100373.28;;;4.58;100.00
64683;BME280;51107;47.652;19.016;2023-04-08T12:26:58;100369.13;;;4.70;100.00
64683;BME280;51107;47.652;19.016;2023-04-08T12:29:26;100371.47;;;4.61;100.00
64683;BME280;51107;47.652;19.016;2023-04-08T12:31:55;100370.03;;;4.69;100.00
64683;BME280;51107;47.652;19.016;2023-04-08T12:34:24;100359.69;;;4.56;100.00
64683;BME280;51107;47.652;19.016;2023-04-08T12:36:55;100368.47;;;4.67;100.00
64683;BME280;51107;47.652;19.016;2023-04-08T12:39:24;100367.13;;;4.61;100.00
64683;BME280;51107;47.652;19.016;2023-04-08T12:41:52;100367.91;;;4.49;100.00
64683;BME280;51107;47.652;19.016;2023-04-08T12:44:21;100371.31;;;4.49;100.00
64683;BME280;51107;47.652;19.016;2023-04-08T12:46:50;100368.19;;;4.44;100.00
64683;BME280;51107;47.652;19.016;2023-04-08T12:49:18;100369.00;;;4.45;100.00
64683;BME280;51107;47.652;19.016;2023-04-08T12:51:46;100369.34;;;4.53;100.00
64683;BME280;51107;47.652;19.016;2023-04-08T12:54:15;100368.25;;;4.57;100.00
64683;BME280;51107;47.652;19.016;2023-04-08T12:56:47;100369.91;;;4.58;100.00
64683;BME280;51107;47.652;19.016;2023-04-08T12:59:16;100377.84;;;4.55;100.00
64683;BME280;51107;47.652;19.016;2023-04-08T13:01:44;100378.56;;;4.57;100.00
64683;BME280;51107;47.652;19.016;2023-04-08T13:04:13;100367.97;;;4.62;100.00
64683;BME280;51107;47.652;19.016;2023-04-08T13:06:41;100371.47;;;4.61;100.00